createdAt,value
2022-09-20T00:01:28.592Z,76.34
2022-09-20T00:03:57.852Z,76.17
2022-09-20T00:06:28.591Z,76.28
2022-09-20T00:08:56.449Z,76.16
2022-09-20T00:11:28.608Z,76.03
2022-09-20T00:13:58.639Z,76.05
2022-09-20T00:16:30.642Z,76.20
2022-09-20T00:18:59.518Z,76.26
2022-09-20T00:21:29.281Z,76.19
2022-09-20T00:23:57.660Z,76.10
2022-09-20T00:26:26.531Z,76.17
2022-09-20T00:28:53.976Z,76.17
2022-09-20T00:31:20.810Z,76.27
2022-09-20T00:34:06.697Z,76.08
2022-09-20T00:36:33.551Z,76.01
2022-09-20T00:39:02.218Z,76.08
2022-09-20T00:41:31.662Z,75.98
2022-09-20T00:44:00.067Z,76.04
2022-09-20T00:46:42.971Z,76.18
2022-09-20T00:49:26.026Z,76.16
2022-09-20T00:52:00.508Z,76.07
2022-09-20T00:54:29.766Z,76.05
2022-09-20T00:56:57.289Z,76.05
2022-09-20T00:59:39.786Z,75.87
2022-09-20T01:02:15.733Z,75.85
2022-09-20T01:04:44.267Z,75.80
2022-09-20T01:07:14.504Z,75.68
2022-09-20T01:09:41.290Z,75.53
2022-09-20T01:12:19.288Z,75.55
2022-09-20T01:14:49.305Z,75.23
2022-09-20T01:17:19.214Z,75.59
2022-09-20T01:20:05.524Z,75.80
2022-09-20T01:22:32.157Z,76.08
2022-09-20T01:25:19.862Z,76.23
2022-09-20T01:27:48.738Z,76.01
2022-09-20T01:30:20.020Z,75.86
2022-09-20T01:33:08.402Z,76.13
2022-09-20T01:35:36.282Z,76.41
2022-09-20T01:38:24.510Z,76.43
2022-09-20T01:41:14.673Z,76.62
2022-09-20T01:44:00.620Z,76.77
2022-09-20T01:46:33.008Z,76.79
2022-09-20T01:49:21.767Z,76.69
2022-09-20T01:52:16.656Z,76.75
2022-09-20T01:54:52.405Z,76.93
2022-09-20T01:57:37.515Z,76.83
2022-09-20T02:00:19.235Z,76.79
2022-09-20T02:02:57.919Z,76.90
2022-09-20T02:05:48.950Z,76.87
2022-09-20T02:08:46.338Z,76.89
2022-09-20T02:11:19.435Z,76.94
2022-09-20T02:14:18.481Z,76.96
2022-09-20T02:16:54.213Z,76.91
2022-09-20T02:19:26.751Z,76.74
2022-09-20T02:22:06.094Z,76.90
2022-09-20T02:24:50.253Z,76.84
2022-09-20T02:27:27.485Z,76.69
2022-09-20T02:30:06.137Z,76.79
2022-09-20T02:32:44.607Z,76.87
2022-09-20T02:35:35.259Z,76.76
2022-09-20T02:38:30.995Z,76.87
2022-09-20T02:41:26.120Z,76.78
2022-09-20T02:44:06.753Z,76.73
2022-09-20T02:46:45.169Z,76.73
2022-09-20T02:49:26.186Z,76.72
2022-09-20T02:52:22.038Z,76.71
2022-09-20T02:55:17.365Z,76.68
2022-09-20T02:57:52.882Z,76.53
2022-09-20T03:00:25.433Z,76.49
2022-09-20T03:03:07.525Z,76.10
2022-09-20T03:05:57.304Z,76.38
2022-09-20T03:08:29.650Z,76.47
2022-09-20T03:11:15.649Z,76.54
2022-09-20T03:14:07.157Z,76.55
2022-09-20T03:17:26.947Z,76.77
2022-09-20T03:20:13.298Z,76.61
2022-09-20T03:22:57.369Z,76.55
2022-09-20T03:25:26.725Z,76.53
2022-09-20T03:27:53.356Z,76.43
2022-09-20T03:30:53.665Z,76.57
2022-09-20T03:33:38.783Z,76.60
2022-09-20T03:36:24.225Z,76.72
2022-09-20T03:38:59.619Z,76.66
2022-09-20T03:41:32.269Z,76.52
2022-09-20T03:44:10.261Z,76.56
2022-09-20T03:46:46.794Z,76.53
2022-09-20T03:49:47.448Z,76.58
2022-09-20T03:52:26.508Z,76.54
2022-09-20T03:55:15.872Z,76.44
2022-09-20T03:57:51.672Z,76.50
2022-09-20T04:00:30.625Z,76.58
2022-09-20T04:03:06.703Z,76.54
2022-09-20T04:05:39.083Z,76.57
2022-09-20T04:08:25.655Z,76.46
2022-09-20T04:10:58.740Z,76.48
2022-09-20T04:14:11.176Z,76.54
2022-09-20T04:17:16.780Z,76.60
2022-09-20T04:19:52.025Z,76.77
2022-09-20T04:22:22.048Z,76.50
2022-09-20T04:24:53.749Z,76.52
2022-09-20T04:27:42.547Z,76.16
2022-09-20T04:30:21.528Z,76.35
2022-09-20T04:33:14.622Z,76.67
2022-09-20T04:36:12.078Z,76.89
2022-09-20T04:38:39.370Z,76.99
2022-09-20T04:41:06.081Z,76.89
2022-09-20T04:43:53.768Z,77.10
2022-09-20T04:46:52.738Z,77.11
2022-09-20T04:49:43.499Z,77.18
2022-09-20T04:52:43.119Z,77.28
2022-09-20T04:55:28.157Z,77.33
2022-09-20T04:58:29.107Z,77.35
2022-09-20T05:01:18.775Z,77.29
2022-09-20T05:03:49.398Z,77.19
2022-09-20T05:06:55.674Z,77.27
2022-09-20T05:09:40.784Z,77.21
2022-09-20T05:12:16.567Z,77.28
2022-09-20T05:15:07.690Z,77.23
2022-09-20T05:18:10.482Z,77.27
2022-09-20T05:21:11.802Z,77.30
2022-09-20T05:24:12.013Z,77.31
2022-09-20T05:27:24.271Z,77.27
2022-09-20T05:30:10.788Z,77.21
2022-09-20T05:32:46.197Z,77.32
2022-09-20T05:35:12.851Z,77.27
2022-09-20T05:38:27.531Z,77.19
2022-09-20T05:41:00.039Z,77.32
2022-09-20T05:43:52.753Z,77.32
2022-09-20T05:46:54.511Z,77.32
2022-09-20T05:49:43.424Z,77.48
2022-09-20T05:52:32.311Z,77.71
2022-09-20T05:55:05.353Z,77.85
2022-09-20T05:57:56.016Z,77.73
2022-09-20T06:00:27.256Z,77.92
2022-09-20T06:03:15.123Z,77.89
2022-09-20T06:05:44.555Z,77.59
2022-09-20T06:08:35.500Z,77.73
2022-09-20T06:11:56.639Z,77.87
2022-09-20T06:15:02.621Z,77.93
2022-09-20T06:17:43.106Z,78.03
2022-09-20T06:20:31.518Z,78.41
2022-09-20T06:23:02.738Z,78.53
2022-09-20T06:25:47.224Z,78.66
2022-09-20T06:28:23.558Z,78.84
2022-09-20T06:30:55.710Z,78.86
2022-09-20T06:33:27.950Z,78.96
2022-09-20T06:36:28.360Z,78.90
2022-09-20T06:39:20.918Z,78.77
2022-09-20T06:41:49.061Z,78.75
2022-09-20T06:44:15.827Z,78.88
2022-09-20T06:46:42.543Z,78.95
2022-09-20T06:49:09.369Z,78.75
2022-09-20T06:51:38.437Z,78.70
2022-09-20T06:54:08.323Z,78.43
2022-09-20T06:56:36.239Z,78.46
2022-09-20T06:59:04.573Z,78.29
2022-09-20T07:01:31.351Z,78.32
2022-09-20T07:03:58.810Z,78.40
2022-09-20T07:06:26.218Z,78.48
2022-09-20T07:08:53.024Z,78.44
2022-09-20T07:11:22.613Z,78.14
2022-09-20T07:13:51.456Z,78.42
2022-09-20T07:16:18.351Z,78.53
2022-09-20T07:18:46.103Z,78.58
2022-09-20T07:21:15.253Z,78.47
2022-09-20T07:23:42.159Z,78.47
2022-09-20T07:26:29.693Z,78.52
2022-09-20T07:28:57.357Z,78.24
2022-09-20T07:31:27.348Z,78.32
2022-09-20T07:33:54.245Z,78.51
2022-09-20T07:36:21.344Z,78.48
2022-09-20T07:38:50.267Z,78.21
2022-09-20T07:41:22.538Z,78.38
2022-09-20T07:43:50.574Z,78.20
2022-09-20T07:46:17.545Z,78.17
2022-09-20T07:48:44.338Z,78.37
2022-09-20T07:51:13.149Z,78.33
2022-09-20T07:53:40.685Z,78.19
2022-09-20T07:56:13.544Z,78.23
2022-09-20T07:58:41.822Z,78.23
2022-09-20T08:01:12.071Z,78.14
2022-09-20T08:03:40.243Z,78.02
2022-09-20T08:06:15.897Z,77.90
2022-09-20T08:08:42.937Z,77.75
2022-09-20T08:11:16.543Z,77.97
2022-09-20T08:16:42.406Z,77.81
2022-09-20T08:19:13.787Z,77.94
2022-09-20T08:21:40.587Z,77.86
2022-09-20T08:24:07.257Z,78.00
2022-09-20T08:26:35.438Z,78.24
2022-09-20T08:29:05.247Z,78.22
2022-09-20T08:31:36.144Z,78.22
2022-09-20T08:34:09.591Z,78.34
2022-09-20T08:36:40.710Z,78.27
2022-09-20T08:42:12.382Z,77.60
2022-09-20T08:44:59.594Z,77.35
2022-09-20T08:47:35.762Z,76.71
2022-09-20T08:50:11.137Z,76.80
2022-09-20T08:52:40.408Z,77.00
2022-09-20T08:55:23.498Z,76.63
2022-09-20T08:57:53.409Z,76.64
2022-09-20T09:00:29.031Z,76.61
2022-09-20T09:03:00.321Z,76.04
2022-09-20T09:05:38.404Z,76.14
2022-09-20T09:08:18.097Z,75.99
2022-09-20T09:10:46.565Z,75.46
2022-09-20T09:13:44.439Z,75.68
2022-09-20T09:16:14.768Z,76.23
2022-09-20T09:18:44.079Z,76.09
2022-09-20T09:21:23.940Z,76.28
2022-09-20T09:24:01.072Z,76.34
2022-09-20T09:26:34.594Z,76.25
2022-09-20T09:29:20.774Z,76.40
2022-09-20T09:31:51.712Z,76.37
2022-09-20T09:34:30.576Z,76.59
2022-09-20T09:36:57.845Z,76.60
2022-09-20T09:39:37.675Z,76.39
2022-09-20T09:42:21.782Z,76.70
2022-09-20T09:44:49.926Z,76.79
2022-09-20T09:47:27.560Z,76.75
2022-09-20T09:50:00.819Z,76.73
2022-09-20T09:52:32.789Z,76.65
2022-09-20T09:55:04.395Z,76.85
2022-09-20T09:57:57.445Z,76.64
2022-09-20T10:00:26.753Z,76.89
2022-09-20T10:03:17.997Z,76.93
2022-09-20T10:06:06.153Z,76.63
2022-09-20T10:08:35.770Z,76.33
2022-09-20T10:11:41.899Z,76.59
2022-09-20T10:14:49.769Z,76.48
2022-09-20T10:18:04.723Z,76.41
2022-09-20T10:20:52.580Z,76.37
2022-09-20T10:24:02.624Z,75.89
2022-09-20T10:26:33.388Z,75.61
2022-09-20T10:29:18.810Z,75.54
2022-09-20T10:32:13.444Z,75.24
2022-09-20T10:35:15.105Z,75.22
2022-09-20T10:37:50.971Z,75.12
2022-09-20T10:40:57.952Z,75.40
2022-09-20T10:43:41.354Z,75.17
2022-09-20T10:46:31.867Z,75.10
2022-09-20T10:49:34.326Z,74.68
2022-09-20T10:52:07.881Z,74.48
2022-09-20T10:54:34.554Z,74.45
2022-09-20T10:57:26.176Z,74.67
2022-09-20T10:59:55.956Z,74.51
2022-09-20T11:02:34.884Z,74.37
2022-09-20T11:05:28.667Z,74.55
2022-09-20T11:08:15.996Z,74.37
2022-09-20T11:10:42.745Z,74.69
2022-09-20T11:13:20.762Z,74.99
2022-09-20T11:16:02.464Z,75.19
2022-09-20T11:18:53.816Z,75.24
2022-09-20T11:21:46.511Z,75.38
2022-09-20T11:24:16.259Z,75.20
2022-09-20T11:26:51.130Z,74.98
2022-09-20T11:29:37.821Z,74.73
2022-09-20T11:32:27.931Z,74.67
2022-09-20T11:35:02.700Z,74.71
2022-09-20T11:37:35.969Z,74.29
2022-09-20T11:40:41.292Z,73.98
2022-09-20T11:43:09.687Z,74.00
2022-09-20T11:45:40.103Z,73.94
2022-09-20T11:48:26.605Z,73.77
2022-09-20T11:51:15.301Z,73.40
2022-09-20T11:54:08.142Z,73.38
2022-09-20T11:56:35.081Z,73.29
2022-09-20T11:59:20.590Z,73.09
2022-09-20T12:01:47.369Z,72.90
2022-09-20T12:04:34.416Z,73.14
2022-09-20T12:07:10.535Z,73.29
2022-09-20T12:09:44.291Z,72.82
2022-09-20T12:12:43.506Z,73.15
2022-09-20T12:15:24.888Z,73.43
2022-09-20T12:17:51.933Z,73.34
2022-09-20T12:20:41.945Z,73.36
2022-09-20T12:23:42.790Z,73.20
2022-09-20T12:26:36.493Z,72.35
2022-09-20T12:29:25.179Z,71.59
2022-09-20T12:31:55.206Z,71.08
2022-09-20T12:34:22.097Z,70.96
2022-09-20T12:36:54.448Z,70.85
2022-09-20T12:39:29.968Z,71.02
2022-09-20T12:42:22.296Z,70.35
2022-09-20T12:44:48.969Z,70.42
2022-09-20T12:47:20.717Z,70.43
2022-09-20T12:50:06.388Z,70.36
2022-09-20T12:52:58.238Z,70.43
2022-09-20T12:55:51.065Z,70.85
2022-09-20T12:58:25.559Z,70.81
2022-09-20T13:00:56.823Z,70.70
2022-09-20T13:03:50.092Z,70.86
2022-09-20T13:06:17.982Z,70.84
2022-09-20T13:08:47.439Z,70.85
2022-09-20T13:11:29.192Z,70.72
2022-09-20T13:14:06.501Z,70.41
2022-09-20T13:16:40.277Z,70.33
2022-09-20T13:19:11.520Z,69.78
2022-09-20T13:21:41.814Z,69.99
2022-09-20T13:24:15.673Z,70.42
2022-09-20T13:26:46.455Z,70.91
2022-09-20T13:29:26.863Z,71.10
2022-09-20T13:31:55.907Z,71.40
2022-09-20T13:34:25.443Z,71.28
2022-09-20T13:36:58.591Z,70.96
2022-09-20T13:39:36.740Z,70.86
2022-09-20T13:42:18.889Z,70.51
2022-09-20T13:44:47.906Z,70.68
2022-09-20T13:47:29.717Z,70.73
2022-09-20T13:50:02.346Z,70.83
2022-09-20T13:52:31.331Z,71.14
2022-09-20T13:54:58.086Z,71.27
2022-09-20T13:57:29.663Z,71.50
2022-09-20T13:59:58.217Z,71.57
2022-09-20T14:02:33.772Z,71.64
2022-09-20T14:05:04.166Z,71.65
2022-09-20T14:07:32.919Z,71.73
2022-09-20T14:09:59.759Z,71.59
2022-09-20T14:12:27.393Z,71.46
2022-09-20T14:14:54.844Z,71.58
2022-09-20T14:17:24.043Z,71.91
2022-09-20T14:19:53.994Z,71.93
2022-09-20T14:22:28.125Z,72.14
2022-09-20T14:25:01.360Z,72.28
2022-09-20T14:27:30.801Z,72.33
2022-09-20T14:29:58.069Z,72.47
2022-09-20T14:32:52.476Z,72.66
2022-09-20T14:35:21.691Z,72.91
2022-09-20T14:37:51.656Z,72.48
2022-09-20T14:40:40.292Z,72.28
2022-09-20T14:43:23.721Z,72.34
2022-09-20T14:45:55.230Z,72.59
2022-09-20T14:48:21.926Z,72.57
2022-09-20T14:51:09.740Z,72.49
2022-09-20T14:53:37.766Z,72.27
2022-09-20T14:56:04.498Z,71.93
2022-09-20T14:58:32.526Z,71.81
2022-09-20T15:01:13.072Z,71.74
2022-09-20T15:03:42.358Z,71.79
2022-09-20T15:06:11.179Z,71.76
2022-09-20T15:08:40.713Z,71.98
2022-09-20T15:11:17.900Z,71.95
2022-09-20T15:13:44.911Z,71.76
2022-09-20T15:16:14.222Z,71.95
2022-09-20T15:18:42.723Z,71.79
2022-09-20T15:21:10.971Z,71.82
2022-09-20T15:23:38.967Z,71.81
2022-09-20T15:26:08.271Z,71.90
2022-09-20T15:28:35.097Z,72.16
2022-09-20T15:31:02.449Z,72.18
2022-09-20T15:33:31.749Z,72.24
2022-09-20T15:36:00.665Z,72.27
2022-09-20T15:38:27.716Z,72.17
2022-09-20T15:40:54.742Z,72.00
2022-09-20T15:43:34.119Z,72.03
2022-09-20T15:46:17.524Z,71.93
2022-09-20T15:48:44.546Z,71.50
2022-09-20T15:51:13.331Z,71.80
2022-09-20T15:53:45.423Z,71.84
2022-09-20T15:56:26.942Z,71.67
2022-09-20T15:58:58.861Z,71.71
2022-09-20T16:01:33.094Z,71.84
2022-09-20T16:04:31.733Z,72.00
2022-09-20T16:06:58.484Z,71.95
2022-09-20T16:09:25.924Z,71.93
2022-09-20T16:11:58.144Z,71.89
2022-09-20T16:14:25.414Z,71.99
2022-09-20T16:16:52.188Z,71.89
2022-09-20T16:19:23.269Z,71.97
2022-09-20T16:21:58.210Z,72.11
2022-09-20T16:24:34.088Z,72.09
2022-09-20T16:27:03.215Z,72.09
2022-09-20T16:29:31.523Z,72.11
2022-09-20T16:32:00.362Z,72.14
2022-09-20T16:34:32.884Z,72.17
2022-09-20T16:37:09.905Z,72.38
2022-09-20T16:39:37.152Z,72.43
2022-09-20T16:42:05.947Z,72.53
2022-09-20T16:44:37.879Z,72.65
2022-09-20T16:47:09.487Z,72.84
2022-09-20T16:49:36.747Z,72.80
2022-09-20T16:52:05.557Z,72.79
2022-09-20T16:54:33.307Z,72.96
2022-09-20T16:57:00.164Z,73.05
2022-09-20T16:59:26.978Z,73.15
2022-09-20T17:01:54.547Z,72.96
2022-09-20T17:04:21.547Z,72.83
2022-09-20T17:06:49.890Z,72.99
2022-09-20T17:09:17.757Z,73.18
2022-09-20T17:11:51.458Z,73.37
2022-09-20T17:14:20.217Z,73.58
2022-09-20T17:16:47.886Z,73.68
2022-09-20T17:19:17.896Z,73.74
2022-09-20T17:21:58.805Z,73.78
2022-09-20T17:24:50.812Z,73.81
2022-09-20T17:27:18.430Z,73.73
2022-09-20T17:29:47.802Z,73.66
2022-09-20T17:32:14.624Z,73.74
2022-09-20T17:34:42.353Z,73.72
2022-09-20T17:37:18.724Z,73.64
2022-09-20T17:39:49.813Z,74.04
2022-09-20T17:46:11.540Z,73.99
2022-09-20T17:48:41.395Z,73.79
2022-09-20T17:51:12.558Z,73.90
2022-09-20T17:53:39.872Z,73.84
2022-09-20T17:56:08.085Z,73.52
2022-09-20T17:58:35.938Z,73.73
2022-09-20T18:01:12.735Z,73.69
2022-09-20T18:03:46.053Z,73.71
2022-09-20T18:06:18.220Z,73.78
2022-09-20T18:08:56.999Z,73.80
2022-09-20T18:11:31.828Z,73.58
2022-09-20T18:14:00.745Z,73.85
2022-09-20T18:16:30.968Z,73.68
2022-09-20T18:19:08.664Z,73.56
2022-09-20T18:21:37.031Z,73.71
2022-09-20T18:24:09.299Z,73.58
2022-09-20T18:26:37.882Z,73.68
2022-09-20T18:29:24.545Z,73.66
2022-09-20T18:32:01.681Z,73.66
2022-09-20T18:34:33.674Z,73.86
2022-09-20T18:37:03.459Z,73.74
2022-09-20T18:39:32.859Z,73.89
2022-09-20T18:42:01.844Z,74.07
2022-09-20T18:45:27.265Z,74.16
2022-09-20T18:47:57.768Z,74.46
2022-09-20T18:50:26.003Z,74.48
2022-09-20T18:53:00.462Z,74.65
2022-09-20T18:57:15.792Z,74.65
2022-09-20T18:59:54.671Z,74.83
2022-09-20T19:02:56.439Z,74.73
2022-09-20T19:05:50.316Z,74.60
2022-09-20T19:08:43.783Z,74.93
2022-09-20T19:11:19.639Z,75.09
2022-09-20T19:14:12.971Z,74.80
2022-09-20T19:16:41.314Z,74.61
2022-09-20T19:19:40.512Z,74.79
2022-09-20T19:23:43.475Z,74.75
2022-09-20T19:27:29.154Z,74.97
2022-09-20T19:30:59.007Z,74.60
2022-09-20T19:33:22.990Z,74.64
2022-09-20T19:35:51.708Z,74.87
2022-09-20T19:38:43.075Z,74.60
2022-09-20T19:41:14.860Z,74.93
2022-09-20T19:43:55.319Z,74.62
2022-09-20T19:46:35.537Z,74.79
2022-09-20T19:49:39.844Z,74.52
2022-09-20T19:52:12.378Z,74.48
2022-09-20T19:54:46.257Z,74.64
2022-09-20T19:57:47.276Z,74.94
2022-09-20T20:00:19.727Z,74.88
2022-09-20T20:02:48.183Z,75.06
2022-09-20T20:05:48.333Z,75.09
2022-09-20T20:09:19.467Z,75.34
2022-09-20T20:12:25.873Z,75.31
2022-09-20T20:15:25.598Z,75.32
2022-09-20T20:17:58.580Z,75.19
2022-09-20T20:20:40.559Z,75.54
2022-09-20T20:23:27.811Z,75.25
2022-09-20T20:26:07.635Z,75.34
2022-09-20T20:28:36.470Z,75.16
2022-09-20T20:31:03.761Z,75.38
2022-09-20T20:33:32.320Z,75.37
2022-09-20T20:36:01.667Z,75.42
2022-09-20T20:38:36.977Z,75.42
2022-09-20T20:41:09.837Z,75.29
2022-09-20T20:43:39.250Z,75.38
2022-09-20T20:46:09.154Z,75.19
2022-09-20T20:48:36.529Z,75.23
2022-09-20T20:51:11.431Z,75.23
2022-09-20T20:53:49.123Z,75.26
2022-09-20T20:56:22.296Z,75.31
2022-09-20T20:58:49.411Z,75.38
2022-09-20T21:01:22.107Z,75.39
2022-09-20T21:03:52.430Z,75.22
2022-09-20T21:06:27.697Z,75.10
2022-09-20T21:08:54.542Z,75.39
2022-09-20T21:11:30.585Z,75.31
2022-09-20T21:13:59.615Z,75.47
2022-09-20T21:16:29.654Z,75.33
2022-09-20T21:18:56.908Z,75.19
2022-09-20T21:21:26.833Z,75.48
2022-09-20T21:23:54.858Z,75.43
2022-09-20T21:26:23.384Z,75.53
2022-09-20T21:28:53.488Z,75.54
2022-09-20T21:31:23.658Z,75.79
2022-09-20T21:33:50.749Z,75.51
2022-09-20T21:36:20.762Z,75.50
2022-09-20T21:38:47.785Z,75.59
2022-09-20T21:41:22.833Z,75.62
2022-09-20T21:43:55.353Z,75.45
2022-09-20T21:46:28.702Z,75.57
2022-09-20T21:48:57.260Z,75.65
2022-09-20T21:51:25.791Z,75.63
2022-09-20T21:53:56.631Z,75.63
2022-09-20T21:57:26.969Z,75.61
2022-09-20T21:59:53.836Z,75.56
2022-09-20T22:02:35.174Z,75.65
2022-09-20T22:05:02.515Z,75.63
2022-09-20T22:07:30.037Z,75.60
2022-09-20T22:09:56.811Z,75.56
2022-09-20T22:12:24.285Z,75.28
2022-09-20T22:14:51.143Z,75.40
2022-09-20T22:25:07.946Z,75.68
2022-09-20T22:27:37.838Z,75.51
2022-09-20T22:30:07.056Z,75.55
2022-09-20T22:32:34.048Z,75.66
2022-09-20T22:35:00.979Z,75.67
2022-09-20T22:37:28.788Z,75.55
2022-09-20T22:39:55.536Z,75.89
2022-09-20T22:43:41.395Z,76.01
2022-09-20T22:46:17.888Z,76.31
2022-09-20T22:48:45.415Z,76.22
2022-09-20T22:51:21.336Z,76.27
2022-09-20T22:53:49.540Z,76.34
2022-09-20T22:56:23.660Z,76.44
2022-09-20T22:58:52.953Z,76.50
2022-09-20T23:01:22.472Z,76.51
2022-09-20T23:03:58.477Z,76.58
2022-09-20T23:06:29.313Z,76.45
2022-09-20T23:08:59.119Z,76.64
2022-09-20T23:11:26.155Z,76.73
2022-09-20T23:13:58.482Z,76.55
2022-09-20T23:16:28.913Z,76.71
2022-09-20T23:18:57.448Z,76.73
2022-09-20T23:21:24.683Z,76.74
2022-09-20T23:23:58.268Z,76.84
2022-09-20T23:26:27.195Z,76.83
2022-09-20T23:28:57.027Z,76.83
2022-09-20T23:31:24.872Z,76.91
2022-09-20T23:33:57.131Z,76.82
2022-09-20T23:36:25.716Z,77.00
2022-09-20T23:38:52.553Z,76.95
2022-09-20T23:41:22.991Z,76.98
2022-09-20T23:43:50.106Z,76.91
2022-09-20T23:46:18.727Z,76.79
2022-09-20T23:48:46.001Z,76.94
2022-09-20T23:51:15.380Z,76.90
2022-09-20T23:53:42.687Z,76.93
2022-09-20T23:56:10.348Z,77.07
2022-09-20T23:58:39.199Z,76.96
